Time,TemperatureF,DewpointF,PressureIn,WindDirection,WindDirectionDegrees,WindSpeedMPH,WindSpeedGustMPH,Humidity,HourlyPrecipIn,Conditions,Clouds,dailyrainin,SoftwareType,DateUTC
2013-12-04 00:02:00,48.4,45.5,-100.00,ESE,105,0.0,4.0,90,0.00,,,0.00,meteohub,2013-12-04 06:02:00,
2013-12-04 00:07:00,48.4,45.5,-100.00,ESE,106,0.0,4.0,90,0.00,,,0.00,meteohub,2013-12-04 06:07:00,
2013-12-04 00:12:00,48.4,45.5,-100.00,ESE,109,1.0,3.0,90,0.00,,,0.00,meteohub,2013-12-04 06:12:00,
2013-12-04 00:17:00,48.2,45.3,-100.00,ESE,119,0.0,4.0,90,0.00,,,0.00,meteohub,2013-12-04 06:17:00,
2013-12-04 00:22:00,48.0,45.5,-100.00,ESE,118,0.0,4.0,91,0.00,,,0.00,meteohub,2013-12-04 06:22:00,
2013-12-04 00:27:00,47.8,45.3,-100.00,ESE,118,3.0,4.0,91,0.00,,,0.00,meteohub,2013-12-04 06:27:00,
2013-12-04 00:32:00,47.8,45.3,-100.00,ESE,117,0.0,4.0,91,0.00,,,0.00,meteohub,2013-12-04 06:32:00,
2013-12-04 00:37:00,47.8,45.3,-100.00,ESE,117,3.0,4.0,91,0.00,,,0.00,meteohub,2013-12-04 06:37:00,
2013-12-04 00:42:00,47.7,45.1,-100.00,ESE,117,3.0,4.0,91,0.00,,,0.00,meteohub,2013-12-04 06:42:00,
2013-12-04 00:47:00,47.7,45.1,-100.00,ESE,119,2.0,4.0,91,0.00,,,0.00,meteohub,2013-12-04 06:47:00,
2013-12-04 00:52:00,48.0,45.9,-100.00,ESE,121,3.0,5.0,92,0.00,,,0.00,meteohub,2013-12-04 06:52:00,
2013-12-04 00:57:00,48.2,46.0,-100.00,ESE,122,4.0,8.0,92,0.00,,,0.00,meteohub,2013-12-04 06:57:00,
2013-12-04 01:02:00,48.4,46.2,-100.00,ESE,119,0.0,8.0,92,0.00,,,0.00,meteohub,2013-12-04 07:02:00,
2013-12-04 01:07:00,48.6,46.4,-100.00,East,98,0.0,7.0,92,0.00,,,0.00,meteohub,2013-12-04 07:07:00,
2013-12-04 01:12:00,48.7,46.6,-100.00,ESE,121,3.0,7.0,92,0.00,,,0.00,meteohub,2013-12-04 07:12:00,
2013-12-04 01:17:00,48.7,46.6,-100.00,SE,126,0.0,5.0,92,0.00,,,0.00,meteohub,2013-12-04 07:17:00,
2013-12-04 01:22:00,48.9,46.8,-100.00,ESE,119,0.0,4.0,92,0.00,,,0.00,meteohub,2013-12-04 07:22:00,
2013-12-04 01:27:00,48.9,46.8,-100.00,SE,126,0.0,4.0,92,0.00,,,0.00,meteohub,2013-12-04 07:27:00,
2013-12-04 01:32:00,49.1,46.9,-100.00,South,171,0.0,4.0,92,0.00,,,0.00,meteohub,2013-12-04 07:32:00,
2013-12-04 01:37:00,49.3,47.1,-100.00,ESE,108,0.0,4.0,92,0.00,,,0.00,meteohub,2013-12-04 07:37:00,
2013-12-04 01:42:00,49.3,47.1,-100.00,ESE,107,0.0,5.0,92,0.00,,,0.00,meteohub,2013-12-04 07:42:00,
2013-12-04 01:47:00,49.3,47.1,-100.00,ESE,107,0.0,5.0,92,0.00,,,0.00,meteohub,2013-12-04 07:47:00,
2013-12-04 01:52:00,49.3,47.1,-100.00,ESE,108,0.0,2.0,92,0.00,,,0.00,meteohub,2013-12-04 07:52:00,
2013-12-04 01:57:00,49.3,47.1,-100.00,ESE,108,0.0,2.0,92,0.00,,,0.00,meteohub,2013-12-04 07:57:00,
2013-12-04 02:02:00,49.5,47.3,-100.00,ESE,108,0.0,2.0,92,0.00,,,0.00,meteohub,2013-12-04 08:02:00,
2013-12-04 02:07:00,49.6,47.5,-100.00,ESE,108,2.0,2.0,92,0.00,,,0.00,meteohub,2013-12-04 08:07:00,
2013-12-04 02:12:00,49.6,47.5,-100.00,ESE,108,1.0,3.0,92,0.00,,,0.00,meteohub,2013-12-04 08:12:00,
2013-12-04 02:17:00,49.6,47.5,-100.00,ESE,107,0.0,3.0,92,0.00,,,0.00,meteohub,2013-12-04 08:17:00,
2013-12-04 02:22:00,49.6,47.5,-100.00,ESE,108,0.0,3.0,92,0.00,,,0.00,meteohub,2013-12-04 08:22:00,
2013-12-04 02:28:00,49.6,47.5,-100.00,ESE,108,0.0,2.0,92,0.00,,,0.00,meteohub,2013-12-04 08:28:00,
2013-12-04 02:33:00,49.6,47.5,-100.00,ESE,107,0.0,1.0,92,0.00,,,0.00,meteohub,2013-12-04 08:33:00,
2013-12-04 02:38:00,49.6,47.5,-100.00,ESE,108,0.0,1.0,92,0.00,,,0.00,meteohub,2013-12-04 08:38:00,
2013-12-04 02:43:00,49.5,47.3,-100.00,ESE,107,0.0,1.0,92,0.00,,,0.00,meteohub,2013-12-04 08:43:00,
2013-12-04 02:48:00,49.5,47.3,-100.00,ESE,108,0.0,1.0,92,0.00,,,0.00,meteohub,2013-12-04 08:48:00,
2013-12-04 02:53:00,49.3,47.1,-100.00,ESE,108,0.0,1.0,92,0.00,,,0.00,meteohub,2013-12-04 08:53:00,
2013-12-04 02:58:00,49.3,47.1,-100.00,ESE,108,1.0,1.0,92,0.00,,,0.00,meteohub,2013-12-04 08:58:00,
2013-12-04 03:03:00,49.3,47.3,-100.00,ESE,108,0.0,3.0,93,0.00,,,0.00,meteohub,2013-12-04 09:03:00,
2013-12-04 03:08:00,49.3,47.3,-100.00,ESE,108,0.0,3.0,93,0.00,,,0.00,meteohub,2013-12-04 09:08:00,
2013-12-04 03:13:00,49.3,47.3,-100.00,ESE,108,0.0,3.0,93,0.00,,,0.00,meteohub,2013-12-04 09:13:00,
2013-12-04 03:18:00,49.5,47.5,-100.00,ESE,109,0.0,1.0,93,0.00,,,0.00,meteohub,2013-12-04 09:18:00,
2013-12-04 03:23:00,49.5,47.5,-100.00,ESE,109,0.0,1.0,93,0.00,,,0.00,meteohub,2013-12-04 09:23:00,
2013-12-04 03:28:00,49.5,47.5,-100.00,ESE,109,0.0,1.0,93,0.00,,,0.00,meteohub,2013-12-04 09:28:00,
2013-12-04 03:33:00,49.3,47.3,-100.00,ESE,109,0.0,1.0,93,0.00,,,0.00,meteohub,2013-12-04 09:33:00,
2013-12-04 03:38:00,49.3,47.3,-100.00,ESE,109,0.0,1.0,93,0.00,,,0.00,meteohub,2013-12-04 09:38:00,
2013-12-04 03:43:00,49.3,47.3,-100.00,ESE,107,0.0,1.0,93,0.00,,,0.00,meteohub,2013-12-04 09:43:00,
2013-12-04 03:48:00,49.3,47.3,-100.00,ESE,108,2.0,2.0,93,0.00,,,0.00,meteohub,2013-12-04 09:48:00,
2013-12-04 03:53:00,49.5,47.5,-100.00,ESE,109,1.0,2.0,93,0.00,,,0.00,meteohub,2013-12-04 09:53:00,
2013-12-04 03:58:00,49.6,47.7,-100.00,ESE,109,0.0,3.0,93,0.00,,,0.00,meteohub,2013-12-04 09:58:00,
2013-12-04 04:03:00,49.6,47.7,-100.00,ESE,108,0.0,4.0,93,0.00,,,0.00,meteohub,2013-12-04 10:03:00,
2013-12-04 04:08:00,49.6,47.7,-100.00,ESE,108,0.0,4.0,93,0.00,,,0.00,meteohub,2013-12-04 10:08:00,
2013-12-04 04:13:00,49.6,47.7,-100.00,ESE,108,0.0,3.0,93,0.00,,,0.00,meteohub,2013-12-04 10:13:00,
2013-12-04 04:18:00,49.8,47.8,-100.00,ESE,111,5.0,5.0,93,0.00,,,0.00,meteohub,2013-12-04 10:18:00,
2013-12-04 04:23:00,50.0,48.0,-100.00,ESE,119,3.0,5.0,93,0.00,,,0.00,meteohub,2013-12-04 10:23:00,
2013-12-04 04:29:00,50.0,48.0,-100.00,ESE,121,1.0,5.0,93,0.00,,,0.00,meteohub,2013-12-04 10:29:00,
2013-12-04 04:34:00,50.0,48.0,-100.00,SE,125,4.0,5.0,93,0.00,,,0.00,meteohub,2013-12-04 10:34:00,
2013-12-04 04:39:00,50.0,48.0,-100.00,ESE,122,2.0,5.0,93,0.00,,,0.00,meteohub,2013-12-04 10:39:00,
2013-12-04 04:44:00,49.8,47.8,-100.00,ESE,121,2.0,5.0,93,0.00,,,0.00,meteohub,2013-12-04 10:44:00,
2013-12-04 04:49:00,49.8,47.8,-100.00,ESE,123,4.0,5.0,93,0.00,,,0.00,meteohub,2013-12-04 10:49:00,
2013-12-04 04:54:00,50.0,48.0,-100.00,SE,128,4.0,5.0,93,0.00,,,0.00,meteohub,2013-12-04 10:54:00,
2013-12-04 04:59:00,50.0,48.0,-100.00,ESE,123,3.0,5.0,93,0.00,,,0.00,meteohub,2013-12-04 10:59:00,
2013-12-04 05:04:00,50.2,48.2,-100.00,ESE,122,2.0,9.0,93,0.00,,,0.00,meteohub,2013-12-04 11:04:00,
2013-12-04 05:09:00,50.0,48.0,-100.00,ESE,123,4.0,9.0,93,0.00,,,0.00,meteohub,2013-12-04 11:09:00,
2013-12-04 05:14:00,50.2,48.2,-100.00,ESE,119,3.0,9.0,93,0.00,,,0.00,meteohub,2013-12-04 11:14:00,
2013-12-04 05:19:00,50.2,48.2,-100.00,ESE,109,7.0,7.0,93,0.00,,,0.00,meteohub,2013-12-04 11:19:00,
2013-12-04 05:24:00,50.2,48.6,-100.00,ESE,114,4.0,7.0,94,0.00,,,0.00,meteohub,2013-12-04 11:24:00,
2013-12-04 05:29:00,50.4,48.7,-100.00,ESE,114,0.0,7.0,94,0.00,,,0.00,meteohub,2013-12-04 11:29:00,
2013-12-04 05:34:00,50.4,48.7,-100.00,ESE,121,4.0,7.0,94,0.00,,,0.00,meteohub,2013-12-04 11:34:00,
2013-12-04 05:39:00,50.4,48.7,-100.00,ESE,116,3.0,7.0,94,0.00,,,0.00,meteohub,2013-12-04 11:39:00,
2013-12-04 05:44:00,50.4,48.7,-100.00,ESE,118,3.0,7.0,94,0.00,,,0.00,meteohub,2013-12-04 11:44:00,
2013-12-04 05:49:00,50.4,48.7,-100.00,ESE,114,2.0,9.0,94,0.00,,,0.00,meteohub,2013-12-04 11:49:00,
2013-12-04 05:54:00,50.4,48.7,-100.00,ESE,113,4.0,9.0,94,0.00,,,0.00,meteohub,2013-12-04 11:54:00,
2013-12-04 05:59:00,50.5,48.9,-100.00,ESE,113,3.0,9.0,94,0.00,,,0.00,meteohub,2013-12-04 11:59:00,
2013-12-04 06:04:00,50.5,48.9,-100.00,ESE,113,0.0,7.0,94,0.00,,,0.00,meteohub,2013-12-04 12:04:00,
2013-12-04 06:09:00,50.5,48.9,-100.00,ESE,113,0.0,4.0,94,0.00,,,0.00,meteohub,2013-12-04 12:09:00,
2013-12-04 06:15:00,50.7,49.1,-100.00,ESE,113,0.0,4.0,94,0.00,,,0.00,meteohub,2013-12-04 12:15:00,
2013-12-04 06:20:00,50.7,49.1,-100.00,SE,130,5.0,5.0,94,0.00,,,0.00,meteohub,2013-12-04 12:20:00,
2013-12-04 06:25:00,50.9,49.3,-100.00,ESE,115,1.0,4.0,94,0.00,,,0.00,meteohub,2013-12-04 12:25:00,
2013-12-04 06:30:00,51.1,49.5,-100.00,ESE,117,3.0,5.0,94,0.00,,,0.00,meteohub,2013-12-04 12:30:00,
2013-12-04 06:35:00,51.1,49.5,-100.00,ESE,117,1.0,5.0,94,0.00,,,0.00,meteohub,2013-12-04 12:35:00,
2013-12-04 06:40:00,51.1,49.5,-100.00,ESE,115,3.0,6.0,94,0.00,,,0.00,meteohub,2013-12-04 12:40:00,
2013-12-04 06:45:00,51.3,49.3,-100.00,ESE,107,2.0,6.0,93,0.00,,,0.00,meteohub,2013-12-04 12:45:00,
2013-12-04 06:50:00,51.3,49.3,-100.00,ESE,107,0.0,6.0,93,0.00,,,0.00,meteohub,2013-12-04 12:50:00,
2013-12-04 06:55:00,51.4,49.5,-100.00,SE,135,2.0,6.0,93,0.00,,,0.00,meteohub,2013-12-04 12:55:00,
2013-12-04 07:00:00,51.4,49.5,-100.00,ESE,111,2.0,6.0,93,0.00,,,0.00,meteohub,2013-12-04 13:00:00,
2013-12-04 07:05:00,51.3,49.3,-100.00,ESE,122,5.0,6.0,93,0.00,,,0.00,meteohub,2013-12-04 13:05:00,
2013-12-04 07:10:00,51.3,49.3,-100.00,ESE,116,1.0,6.0,93,0.00,,,0.00,meteohub,2013-12-04 13:10:00,
2013-12-04 07:15:00,51.3,49.3,-100.00,ESE,112,3.0,6.0,93,0.00,,,0.00,meteohub,2013-12-04 13:15:00,
2013-12-04 07:20:00,51.4,49.5,-100.00,ESE,112,2.0,6.0,93,0.00,,,0.00,meteohub,2013-12-04 13:20:00,
2013-12-04 07:25:00,51.4,49.8,-100.00,ESE,123,0.0,5.0,94,0.00,,,0.00,meteohub,2013-12-04 13:25:00,
2013-12-04 07:30:00,51.4,49.8,-100.00,ESE,119,3.0,6.0,94,0.00,,,0.00,meteohub,2013-12-04 13:30:00,
2013-12-04 07:35:00,51.4,49.8,-100.00,ESE,118,2.0,6.0,94,0.00,,,0.00,meteohub,2013-12-04 13:35:00,
2013-12-04 07:40:00,51.4,49.8,-100.00,East,96,0.0,6.0,94,0.00,,,0.00,meteohub,2013-12-04 13:40:00,
2013-12-04 07:45:00,51.4,49.8,-100.00,East,99,2.0,6.0,94,0.00,,,0.00,meteohub,2013-12-04 13:45:00,
2013-12-04 07:50:00,51.4,49.8,-100.00,ESE,120,3.0,5.0,94,0.00,,,0.00,meteohub,2013-12-04 13:50:00,
2013-12-04 07:55:00,51.4,49.8,-100.00,ESE,121,0.0,5.0,94,0.00,,,0.00,meteohub,2013-12-04 13:55:00,
2013-12-04 08:00:00,51.4,49.8,-100.00,ESE,119,1.0,6.0,94,0.00,,,0.00,meteohub,2013-12-04 14:00:00,
2013-12-04 08:05:00,51.4,49.8,-100.00,ESE,121,2.0,6.0,94,0.00,,,0.00,meteohub,2013-12-04 14:05:00,
2013-12-04 08:10:00,51.4,49.8,-100.00,SE,126,2.0,6.0,94,0.00,,,0.00,meteohub,2013-12-04 14:10:00,
2013-12-04 08:15:00,51.4,49.8,-100.00,ESE,117,1.0,6.0,94,0.00,,,0.00,meteohub,2013-12-04 14:15:00,
2013-12-04 08:20:00,51.4,49.8,-100.00,ESE,117,2.0,6.0,94,0.00,,,0.00,meteohub,2013-12-04 14:20:00,
2013-12-04 08:25:00,51.4,49.8,-100.00,ESE,117,4.0,6.0,94,0.00,,,0.00,meteohub,2013-12-04 14:25:00,
2013-12-04 08:30:00,51.4,49.8,-100.00,ESE,116,0.0,5.0,94,0.00,,,0.00,meteohub,2013-12-04 14:30:00,
2013-12-04 08:35:00,51.4,49.8,-100.00,ESE,117,3.0,4.0,94,0.00,,,0.00,meteohub,2013-12-04 14:35:00,
2013-12-04 08:40:00,51.4,49.8,-100.00,ESE,117,0.0,4.0,94,0.00,,,0.00,meteohub,2013-12-04 14:40:00,
2013-12-04 08:45:00,51.4,49.8,-100.00,ESE,115,0.0,4.0,94,0.00,,,0.00,meteohub,2013-12-04 14:45:00,
2013-12-04 08:50:00,51.4,49.8,-100.00,ESE,122,0.0,5.0,94,0.00,,,0.00,meteohub,2013-12-04 14:50:00,
2013-12-04 08:55:00,51.6,50.0,-100.00,ESE,111,0.0,6.0,94,0.00,,,0.00,meteohub,2013-12-04 14:55:00,
2013-12-04 09:00:00,51.6,50.0,-100.00,ESE,119,1.0,6.0,94,0.00,,,0.00,meteohub,2013-12-04 15:00:00,
2013-12-04 09:05:00,51.8,50.2,-100.00,ESE,119,0.0,6.0,94,0.00,,,0.00,meteohub,2013-12-04 15:05:00,
2013-12-04 09:11:00,52.0,50.0,-100.00,ESE,118,6.0,6.0,93,0.00,,,0.00,meteohub,2013-12-04 15:11:00,
2013-12-04 09:16:00,52.0,50.0,-100.00,ESE,113,2.0,7.0,93,0.00,,,0.00,meteohub,2013-12-04 15:16:00,
2013-12-04 09:21:00,52.0,50.0,-100.00,ESE,111,0.0,7.0,93,0.00,,,0.00,meteohub,2013-12-04 15:21:00,
2013-12-04 09:26:00,52.2,50.2,-100.00,ESE,105,4.0,7.0,93,0.00,,,0.00,meteohub,2013-12-04 15:26:00,
2013-12-04 09:31:00,52.2,50.2,-100.00,ESE,123,3.0,6.0,93,0.00,,,0.00,meteohub,2013-12-04 15:31:00,
2013-12-04 09:36:00,52.3,50.4,-100.00,ESE,121,3.0,7.0,93,0.00,,,0.00,meteohub,2013-12-04 15:36:00,
2013-12-04 09:41:00,52.5,50.5,-100.00,ESE,107,2.0,7.0,93,0.00,,,0.00,meteohub,2013-12-04 15:41:00,
2013-12-04 09:46:00,52.9,50.9,-100.00,SE,126,4.0,7.0,93,0.00,,,0.00,meteohub,2013-12-04 15:46:00,
2013-12-04 09:51:00,53.1,51.1,-100.00,SE,124,0.0,7.0,93,0.00,,,0.00,meteohub,2013-12-04 15:51:00,
2013-12-04 09:56:00,53.2,51.3,-100.00,ESE,117,2.0,7.0,93,0.00,,,0.00,meteohub,2013-12-04 15:56:00,
2013-12-04 10:01:00,53.6,51.6,-100.00,ESE,108,1.0,6.0,93,0.00,,,0.00,meteohub,2013-12-04 16:01:00,
2013-12-04 10:06:00,53.8,51.8,-100.00,ESE,118,0.0,6.0,93,0.00,,,0.00,meteohub,2013-12-04 16:06:00,
2013-12-04 10:11:00,53.8,51.4,-100.00,ESE,121,0.0,6.0,92,0.00,,,0.00,meteohub,2013-12-04 16:11:00,
2013-12-04 10:16:00,54.0,51.6,-100.00,ESE,109,0.0,6.0,92,0.00,,,0.00,meteohub,2013-12-04 16:16:00,
2013-12-04 10:21:00,54.1,51.8,-100.00,ESE,109,0.0,6.0,92,0.00,,,0.00,meteohub,2013-12-04 16:21:00,
2013-12-04 10:26:00,54.3,52.0,-100.00,South,190,0.0,4.0,92,0.00,,,0.00,meteohub,2013-12-04 16:26:00,
2013-12-04 10:31:00,54.9,52.5,-100.00,ESE,119,0.0,6.0,92,0.00,,,0.00,meteohub,2013-12-04 16:31:00,
2013-12-04 10:36:00,55.0,52.5,-100.00,SSE,150,0.0,7.0,91,0.00,,,0.00,meteohub,2013-12-04 16:36:00,
2013-12-04 10:41:00,55.2,52.7,-100.00,SE,140,2.0,10.0,91,0.00,,,0.00,meteohub,2013-12-04 16:41:00,
2013-12-04 10:46:00,55.4,52.9,-100.00,SE,146,1.0,10.0,91,0.00,,,0.00,meteohub,2013-12-04 16:46:00,
2013-12-04 10:51:00,55.4,52.9,-100.00,ENE,67,0.0,10.0,91,0.00,,,0.00,meteohub,2013-12-04 16:51:00,
2013-12-04 10:56:00,55.4,52.5,-100.00,East,94,4.0,8.0,90,0.00,,,0.00,meteohub,2013-12-04 16:56:00,
2013-12-04 11:01:00,55.2,52.3,-100.00,East,80,5.0,9.0,90,0.00,,,0.00,meteohub,2013-12-04 17:01:00,
2013-12-04 11:06:00,55.2,52.3,-100.00,SE,146,1.0,9.0,90,0.00,,,0.00,meteohub,2013-12-04 17:06:00,
2013-12-04 11:11:00,55.2,52.3,-100.00,East,90,3.0,9.0,90,0.00,,,0.00,meteohub,2013-12-04 17:11:00,
2013-12-04 11:16:00,55.2,52.0,-100.00,South,169,2.0,9.0,89,0.00,,,0.00,meteohub,2013-12-04 17:16:00,
2013-12-04 11:21:00,55.2,52.3,-100.00,ESE,102,2.0,9.0,90,0.00,,,0.00,meteohub,2013-12-04 17:21:00,
2013-12-04 11:26:00,55.2,52.0,-100.00,SE,125,5.0,7.0,89,0.00,,,0.00,meteohub,2013-12-04 17:26:00,
2013-12-04 11:31:00,55.6,52.3,-100.00,SE,139,1.0,7.0,89,0.00,,,0.00,meteohub,2013-12-04 17:31:00,
2013-12-04 11:36:00,55.8,52.5,-100.00,ESE,122,4.0,9.0,89,0.00,,,0.00,meteohub,2013-12-04 17:36:00,
2013-12-04 11:41:00,55.9,52.5,-100.00,SSE,153,2.0,9.0,88,0.00,,,0.00,meteohub,2013-12-04 17:41:00,
2013-12-04 11:46:00,56.1,52.7,-100.00,ESE,103,3.0,8.0,88,0.00,,,0.00,meteohub,2013-12-04 17:46:00,
2013-12-04 11:51:00,56.3,52.9,-100.00,East,95,3.0,8.0,88,0.00,,,0.00,meteohub,2013-12-04 17:51:00,
2013-12-04 11:56:00,56.7,52.9,-100.00,ESE,111,3.0,8.0,87,0.00,,,0.00,meteohub,2013-12-04 17:56:00,
2013-12-04 12:01:00,56.8,53.1,-100.00,ESE,119,0.0,10.0,87,0.00,,,0.00,meteohub,2013-12-04 18:01:00,
2013-12-04 12:07:00,57.2,53.1,-100.00,SSW,200,1.0,10.0,86,0.00,,,0.00,meteohub,2013-12-04 18:07:00,
2013-12-04 12:12:00,57.4,53.2,-100.00,ESE,123,5.0,10.0,86,0.00,,,0.00,meteohub,2013-12-04 18:12:00,
2013-12-04 12:17:00,57.6,53.1,-100.00,SE,140,0.0,9.0,85,0.00,,,0.00,meteohub,2013-12-04 18:17:00,
2013-12-04 12:22:00,57.9,53.4,-100.00,South,171,0.0,9.0,85,0.00,,,0.00,meteohub,2013-12-04 18:22:00,
2013-12-04 12:27:00,58.3,53.4,-100.00,South,190,4.0,10.0,84,0.00,,,0.00,meteohub,2013-12-04 18:27:00,
2013-12-04 12:32:00,58.5,53.2,-100.00,SSW,209,6.0,10.0,83,0.00,,,0.00,meteohub,2013-12-04 18:32:00,
2013-12-04 12:37:00,58.6,53.2,-100.00,SSW,205,0.0,9.0,82,0.00,,,0.00,meteohub,2013-12-04 18:37:00,
2013-12-04 12:42:00,59.0,53.6,-100.00,South,173,0.0,10.0,82,0.00,,,0.00,meteohub,2013-12-04 18:42:00,
2013-12-04 12:47:00,59.4,53.6,-100.00,SSW,195,4.0,12.0,81,0.00,,,0.00,meteohub,2013-12-04 18:47:00,
2013-12-04 12:52:00,59.4,53.2,-100.00,SSW,207,0.0,12.0,80,0.00,,,0.00,meteohub,2013-12-04 18:52:00,
2013-12-04 12:57:00,59.5,53.1,-100.00,South,184,9.0,10.0,79,0.00,,,0.00,meteohub,2013-12-04 18:57:00,
2013-12-04 13:02:00,59.4,52.9,-100.00,SW,223,7.0,14.0,79,0.00,,,0.00,meteohub,2013-12-04 19:02:00,
2013-12-04 13:07:00,59.2,52.7,-100.00,SW,222,7.0,14.0,79,0.00,,,0.00,meteohub,2013-12-04 19:07:00,
2013-12-04 13:12:00,59.0,52.5,-100.00,SW,219,2.0,14.0,79,0.00,,,0.00,meteohub,2013-12-04 19:12:00,
2013-12-04 13:17:00,59.0,52.5,-100.00,SSW,209,4.0,13.0,79,0.00,,,0.00,meteohub,2013-12-04 19:17:00,
2013-12-04 13:22:00,59.0,52.9,-100.00,SW,236,4.0,12.0,80,0.00,,,0.00,meteohub,2013-12-04 19:22:00,
2013-12-04 13:27:00,59.0,52.9,-100.00,SSW,213,4.0,12.0,80,0.00,,,0.00,meteohub,2013-12-04 19:27:00,
2013-12-04 13:32:00,59.0,52.9,-100.00,SW,217,3.0,10.0,80,0.00,,,0.00,meteohub,2013-12-04 19:32:00,
2013-12-04 13:37:00,59.0,52.9,-100.00,SSW,206,3.0,12.0,80,0.00,,,0.00,meteohub,2013-12-04 19:37:00,
2013-12-04 13:42:00,59.0,52.9,-100.00,SW,220,1.0,12.0,80,0.00,,,0.00,meteohub,2013-12-04 19:42:00,
2013-12-04 13:47:00,59.5,53.1,-100.00,SW,216,0.0,10.0,79,0.00,,,0.00,meteohub,2013-12-04 19:47:00,
2013-12-04 13:52:00,59.7,52.9,-100.00,WSW,241,9.0,9.0,78,0.00,,,0.00,meteohub,2013-12-04 19:52:00,
2013-12-04 13:57:00,60.1,52.2,-100.00,SW,224,5.0,12.0,75,0.00,,,0.00,meteohub,2013-12-04 19:57:00,
2013-12-04 14:02:00,60.3,52.3,-100.00,WSW,240,4.0,16.0,75,0.00,,,0.00,meteohub,2013-12-04 20:02:00,
2013-12-04 14:07:00,60.3,52.0,-100.00,SW,219,5.0,17.0,74,0.00,,,0.00,meteohub,2013-12-04 20:07:00,
2013-12-04 14:12:00,60.3,52.0,-100.00,SW,215,3.0,17.0,74,0.00,,,0.00,meteohub,2013-12-04 20:12:00,
2013-12-04 14:17:00,60.1,52.2,-100.00,West,259,5.0,16.0,75,0.00,,,0.00,meteohub,2013-12-04 20:17:00,
2013-12-04 14:22:00,60.3,52.3,-100.00,SW,231,1.0,15.0,75,0.00,,,0.00,meteohub,2013-12-04 20:22:00,
2013-12-04 14:27:00,60.3,52.3,-100.00,SW,234,2.0,13.0,75,0.00,,,0.00,meteohub,2013-12-04 20:27:00,
2013-12-04 14:32:00,60.3,52.3,-100.00,SW,223,4.0,13.0,75,0.00,,,0.00,meteohub,2013-12-04 20:32:00,
2013-12-04 14:37:00,60.3,52.0,-100.00,SW,227,1.0,11.0,74,0.00,,,0.00,meteohub,2013-12-04 20:37:00,
2013-12-04 14:42:00,60.3,52.0,-100.00,WSW,238,5.0,13.0,74,0.00,,,0.00,meteohub,2013-12-04 20:42:00,
2013-12-04 14:47:00,60.3,51.6,-100.00,SW,223,15.0,18.0,73,0.00,,,0.00,meteohub,2013-12-04 20:47:00,
2013-12-04 14:53:00,60.1,51.4,-100.00,WSW,248,1.0,19.0,73,0.00,,,0.00,meteohub,2013-12-04 20:53:00,
2013-12-04 14:58:00,59.9,50.9,-100.00,WSW,247,9.0,19.0,72,0.00,,,0.00,meteohub,2013-12-04 20:58:00,
2013-12-04 15:03:00,59.7,50.7,-100.00,SW,236,12.0,25.0,72,0.00,,,0.00,meteohub,2013-12-04 21:03:00,
2013-12-04 15:08:00,59.7,50.7,-100.00,SW,230,3.0,25.0,72,0.00,,,0.00,meteohub,2013-12-04 21:08:00,
2013-12-04 15:13:00,59.5,50.5,-100.00,SSW,211,10.0,25.0,72,0.00,,,0.00,meteohub,2013-12-04 21:13:00,
2013-12-04 15:18:00,59.0,50.4,-100.00,WSW,250,16.0,20.0,73,0.00,,,0.00,meteohub,2013-12-04 21:18:00,
2013-12-04 15:23:00,58.8,50.2,-100.00,West,271,11.0,22.0,73,0.00,,,0.00,meteohub,2013-12-04 21:23:00,
2013-12-04 15:28:00,58.5,50.2,-100.00,WSW,252,16.0,22.0,74,0.00,,,0.00,meteohub,2013-12-04 21:28:00,
2013-12-04 15:33:00,58.1,49.8,-100.00,SW,232,6.0,20.0,74,0.00,,,0.00,meteohub,2013-12-04 21:33:00,
2013-12-04 15:38:00,57.9,49.6,-100.00,SW,226,8.0,22.0,74,0.00,,,0.00,meteohub,2013-12-04 21:38:00,
2013-12-04 15:43:00,57.7,49.8,-100.00,WSW,237,5.0,24.0,75,0.00,,,0.00,meteohub,2013-12-04 21:43:00,
2013-12-04 15:48:00,57.4,49.5,-100.00,WSW,241,9.0,24.0,75,0.00,,,0.00,meteohub,2013-12-04 21:48:00,
2013-12-04 15:53:00,57.0,49.1,-100.00,WSW,242,10.0,20.0,75,0.00,,,0.00,meteohub,2013-12-04 21:53:00,
2013-12-04 15:58:00,56.8,49.3,-100.00,West,263,10.0,19.0,76,0.00,,,0.00,meteohub,2013-12-04 21:58:00,
2013-12-04 16:03:00,56.7,49.1,-100.00,SW,234,6.0,20.0,76,0.00,,,0.00,meteohub,2013-12-04 22:03:00,
2013-12-04 16:08:00,56.3,49.1,-100.00,SW,230,5.0,20.0,77,0.00,,,0.00,meteohub,2013-12-04 22:08:00,
2013-12-04 16:13:00,55.9,49.1,-100.00,SW,226,5.0,26.0,78,0.00,,,0.00,meteohub,2013-12-04 22:13:00,
2013-12-04 16:18:00,55.6,49.1,-100.00,West,269,13.0,26.0,79,0.00,,,0.00,meteohub,2013-12-04 22:18:00,
2013-12-04 16:23:00,55.0,48.9,-100.00,West,281,14.0,22.0,80,0.00,,,0.00,meteohub,2013-12-04 22:23:00,
2013-12-04 16:28:00,54.3,48.6,-100.00,WNW,297,11.0,23.0,81,0.00,,,0.00,meteohub,2013-12-04 22:28:00,
2013-12-04 16:33:00,53.4,48.4,-100.00,WSW,240,19.0,23.0,83,0.00,,,0.00,meteohub,2013-12-04 22:33:00,
2013-12-04 16:38:00,52.5,47.5,-100.00,West,264,11.0,26.0,83,0.00,,,0.00,meteohub,2013-12-04 22:38:00,
2013-12-04 16:43:00,52.0,47.3,-100.00,SW,236,13.0,26.0,84,0.00,,,0.00,meteohub,2013-12-04 22:43:00,
2013-12-04 16:48:00,51.4,47.1,-100.00,WSW,256,13.0,26.0,85,0.00,,,0.00,meteohub,2013-12-04 22:48:00,
2013-12-04 16:53:00,50.7,46.0,-100.00,West,269,13.0,23.0,84,0.00,,,0.00,meteohub,2013-12-04 22:53:00,
2013-12-04 16:58:00,50.2,45.5,-100.00,West,260,9.0,26.0,84,0.00,,,0.00,meteohub,2013-12-04 22:58:00,
2013-12-04 17:03:00,49.5,44.6,-100.00,SSW,196,7.0,26.0,83,0.00,,,0.00,meteohub,2013-12-04 23:03:00,
2013-12-04 17:08:00,49.1,44.4,-100.00,SW,220,5.0,26.0,84,0.00,,,0.00,meteohub,2013-12-04 23:08:00,
2013-12-04 17:13:00,48.6,43.9,-100.00,West,281,5.0,26.0,84,0.00,,,0.00,meteohub,2013-12-04 23:13:00,
2013-12-04 17:18:00,47.8,43.2,-100.00,NW,304,13.0,26.0,84,0.00,,,0.00,meteohub,2013-12-04 23:18:00,
2013-12-04 17:23:00,47.1,42.6,-100.00,West,264,11.0,25.0,84,0.00,,,0.00,meteohub,2013-12-04 23:23:00,
2013-12-04 17:29:00,46.2,41.7,-100.00,WNW,286,13.0,25.0,84,0.00,,,0.00,meteohub,2013-12-04 23:29:00,
2013-12-04 17:34:00,45.7,41.2,-100.00,West,280,9.0,25.0,84,0.00,,,0.00,meteohub,2013-12-04 23:34:00,
2013-12-04 17:39:00,45.1,40.6,-100.00,WSW,240,9.0,25.0,84,0.00,,,0.00,meteohub,2013-12-04 23:39:00,
2013-12-04 17:44:00,45.0,40.5,-100.00,WNW,284,11.0,25.0,84,0.00,,,0.00,meteohub,2013-12-04 23:44:00,
2013-12-04 17:49:00,44.6,40.1,-100.00,WNW,286,6.0,19.0,84,0.00,,,0.00,meteohub,2013-12-04 23:49:00,
2013-12-04 17:54:00,44.4,39.9,-100.00,West,279,7.0,19.0,84,0.00,,,0.00,meteohub,2013-12-04 23:54:00,
2013-12-04 17:59:00,44.2,39.7,-100.00,West,280,4.0,19.0,84,0.00,,,0.00,meteohub,2013-12-04 23:59:00,
2013-12-04 18:04:00,44.2,39.7,-100.00,WSW,253,4.0,20.0,84,0.00,,,0.00,meteohub,2013-12-05 00:04:00,
2013-12-04 18:09:00,44.1,39.6,-100.00,WSW,238,6.0,20.0,84,0.00,,,0.00,meteohub,2013-12-05 00:09:00,
2013-12-04 18:14:00,43.7,39.2,-100.00,West,268,10.0,19.0,84,0.00,,,0.00,meteohub,2013-12-05 00:14:00,
2013-12-04 18:19:00,43.3,38.8,-100.00,West,279,4.0,19.0,84,0.00,,,0.00,meteohub,2013-12-05 00:19:00,
2013-12-04 18:24:00,43.0,38.1,-100.00,WNW,294,11.0,18.0,83,0.00,,,0.00,meteohub,2013-12-05 00:24:00,
2013-12-04 18:29:00,42.4,37.6,-100.00,WSW,257,16.0,20.0,83,0.00,,,0.00,meteohub,2013-12-05 00:29:00,
2013-12-04 18:34:00,42.1,37.2,-100.00,WSW,258,12.0,26.0,83,0.00,,,0.00,meteohub,2013-12-05 00:34:00,
2013-12-04 18:39:00,41.7,36.9,-100.00,WSW,242,8.0,26.0,83,0.00,,,0.00,meteohub,2013-12-05 00:39:00,
2013-12-04 18:44:00,41.2,36.5,-100.00,WNW,287,15.0,26.0,83,0.00,,,0.00,meteohub,2013-12-05 00:44:00,
2013-12-04 18:49:00,40.8,36.1,-100.00,West,277,6.0,19.0,83,0.00,,,0.00,meteohub,2013-12-05 00:49:00,
2013-12-04 18:54:00,40.6,36.0,-100.00,WSW,237,7.0,20.0,83,0.00,,,0.00,meteohub,2013-12-05 00:54:00,
2013-12-04 18:59:00,40.3,35.6,-100.00,SSW,211,7.0,20.0,83,0.00,,,0.00,meteohub,2013-12-05 00:59:00,
2013-12-04 19:04:00,39.7,35.1,-100.00,West,269,6.0,20.0,83,0.00,,,0.00,meteohub,2013-12-05 01:04:00,
2013-12-04 19:09:00,39.6,35.1,-100.00,West,267,12.0,19.0,84,0.00,,,0.00,meteohub,2013-12-05 01:09:00,
2013-12-04 19:14:00,39.4,34.9,-100.00,West,262,3.0,15.0,84,0.00,,,0.00,meteohub,2013-12-05 01:14:00,
2013-12-04 19:19:00,39.2,34.7,-100.00,WSW,257,9.0,18.0,84,0.00,,,0.00,meteohub,2013-12-05 01:19:00,
2013-12-04 19:24:00,38.8,34.2,-100.00,WNW,288,12.0,18.0,83,0.00,,,0.00,meteohub,2013-12-05 01:24:00,
2013-12-04 19:29:00,38.5,33.8,-100.00,SSW,206,6.0,18.0,83,0.00,,,0.00,meteohub,2013-12-05 01:29:00,
2013-12-04 19:34:00,38.1,33.4,-100.00,West,273,8.0,19.0,83,0.00,,,0.00,meteohub,2013-12-05 01:34:00,
2013-12-04 19:39:00,37.9,33.3,-100.00,West,261,1.0,19.0,83,0.00,,,0.00,meteohub,2013-12-05 01:39:00,
2013-12-04 19:44:00,37.9,33.3,-100.00,WSW,252,7.0,19.0,83,0.00,,,0.00,meteohub,2013-12-05 01:44:00,
2013-12-04 19:49:00,37.8,32.7,-100.00,West,260,12.0,19.0,82,0.00,,,0.00,meteohub,2013-12-05 01:49:00,
2013-12-04 19:54:00,37.4,32.4,-100.00,West,281,10.0,17.0,82,0.00,,,0.00,meteohub,2013-12-05 01:54:00,
2013-12-04 19:59:00,37.2,32.5,-100.00,West,276,5.0,18.0,83,0.00,,,0.00,meteohub,2013-12-05 01:59:00,
2013-12-04 20:04:00,37.0,32.0,-100.00,West,265,9.0,18.0,82,0.00,,,0.00,meteohub,2013-12-05 02:04:00,
2013-12-04 20:09:00,36.9,31.8,-100.00,WSW,252,18.0,18.0,82,0.00,,,0.00,meteohub,2013-12-05 02:09:00,
2013-12-04 20:14:00,36.5,31.5,-100.00,WNW,284,10.0,18.0,82,0.00,,,0.00,meteohub,2013-12-05 02:14:00,
2013-12-04 20:19:00,36.3,31.3,-100.00,WNW,289,6.0,19.0,82,0.00,,,0.00,meteohub,2013-12-05 02:19:00,
2013-12-04 20:24:00,36.1,31.1,-100.00,WNW,288,11.0,20.0,82,0.00,,,0.00,meteohub,2013-12-05 02:24:00,
2013-12-04 20:29:00,35.8,30.7,-100.00,SW,217,12.0,20.0,82,0.00,,,0.00,meteohub,2013-12-05 02:29:00,
2013-12-04 20:34:00,35.4,30.6,-100.00,West,269,3.0,20.0,82,0.00,,,0.00,meteohub,2013-12-05 02:34:00,
2013-12-04 20:39:00,35.1,29.8,-100.00,West,265,6.0,18.0,81,0.00,,,0.00,meteohub,2013-12-05 02:39:00,
2013-12-04 20:44:00,34.9,29.7,-100.00,WNW,291,9.0,19.0,81,0.00,,,0.00,meteohub,2013-12-05 02:44:00,
2013-12-04 20:49:00,34.7,29.5,-100.00,West,273,16.0,22.0,81,0.00,,,0.00,meteohub,2013-12-05 02:49:00,
2013-12-04 20:54:00,34.5,29.3,-100.00,West,266,11.0,22.0,81,0.00,,,0.00,meteohub,2013-12-05 02:54:00,
2013-12-04 20:59:00,34.3,28.8,-100.00,WNW,287,16.0,22.0,80,0.00,,,0.00,meteohub,2013-12-05 02:59:00,
2013-12-04 21:04:00,34.2,28.6,-100.00,ESE,121,6.0,23.0,80,0.00,,,0.00,meteohub,2013-12-05 03:04:00,
2013-12-04 21:09:00,34.2,28.9,-100.00,West,277,5.0,23.0,81,0.00,,,0.00,meteohub,2013-12-05 03:09:00,
2013-12-04 21:14:00,33.8,28.2,-100.00,WSW,251,19.0,23.0,80,0.00,,,0.00,meteohub,2013-12-05 03:14:00,
2013-12-04 21:19:00,33.4,27.9,-100.00,West,271,9.0,26.0,80,0.00,,,0.00,meteohub,2013-12-05 03:19:00,
2013-12-04 21:24:00,33.3,27.7,-100.00,WNW,286,13.0,26.0,80,0.00,,,0.00,meteohub,2013-12-05 03:24:00,
2013-12-04 21:29:00,32.7,27.3,-100.00,WNW,286,7.0,26.0,80,0.00,,,0.00,meteohub,2013-12-05 03:29:00,
2013-12-04 21:35:00,32.5,27.1,-100.00,West,271,4.0,23.0,80,0.00,,,0.00,meteohub,2013-12-05 03:35:00,
2013-12-04 21:40:00,32.5,27.1,-100.00,WSW,253,17.0,19.0,80,0.00,,,0.00,meteohub,2013-12-05 03:40:00,
2013-12-04 21:45:00,32.4,27.0,-100.00,West,276,7.0,19.0,80,0.00,,,0.00,meteohub,2013-12-05 03:45:00,
2013-12-04 21:50:00,32.4,27.0,-100.00,West,278,10.0,19.0,80,0.00,,,0.00,meteohub,2013-12-05 03:50:00,
2013-12-04 21:55:00,32.4,27.0,-100.00,West,259,10.0,19.0,80,0.00,,,0.00,meteohub,2013-12-05 03:55:00,
2013-12-04 22:00:00,32.2,26.8,-100.00,SSW,213,7.0,19.0,80,0.00,,,0.00,meteohub,2013-12-05 04:00:00,
2013-12-04 22:05:00,31.8,26.4,-100.00,West,272,12.0,24.0,80,0.00,,,0.00,meteohub,2013-12-05 04:05:00,
2013-12-04 22:10:00,31.5,26.1,-100.00,West,278,13.0,24.0,80,0.00,,,0.00,meteohub,2013-12-05 04:10:00,
2013-12-04 22:15:00,31.3,25.9,-100.00,WSW,245,10.0,24.0,80,0.00,,,0.00,meteohub,2013-12-05 04:15:00,
2013-12-04 22:20:00,31.3,25.9,-100.00,West,281,12.0,25.0,80,0.00,,,0.00,meteohub,2013-12-05 04:20:00,
2013-12-04 22:25:00,31.3,25.9,-100.00,West,279,9.0,25.0,80,0.00,,,0.00,meteohub,2013-12-05 04:25:00,
2013-12-04 22:30:00,31.1,25.7,-100.00,NW,306,5.0,19.0,80,0.00,,,0.00,meteohub,2013-12-05 04:30:00,
2013-12-04 22:35:00,30.9,25.5,-100.00,WNW,295,5.0,17.0,80,0.00,,,0.00,meteohub,2013-12-05 04:35:00,
2013-12-04 22:40:00,30.9,25.7,-100.00,West,279,14.0,17.0,81,0.00,,,0.00,meteohub,2013-12-05 04:40:00,
2013-12-04 22:45:00,30.7,25.3,-100.00,WNW,289,7.0,18.0,80,0.00,,,0.00,meteohub,2013-12-05 04:45:00,
2013-12-04 22:50:00,30.6,25.2,-100.00,WNW,291,5.0,19.0,80,0.00,,,0.00,meteohub,2013-12-05 04:50:00,
2013-12-04 22:55:00,30.4,25.0,-100.00,West,274,12.0,19.0,80,0.00,,,0.00,meteohub,2013-12-05 04:55:00,
2013-12-04 23:00:00,30.0,24.6,-100.00,WNW,290,9.0,21.0,80,0.00,,,0.00,meteohub,2013-12-05 05:00:00,
2013-12-04 23:01:00,29.8,24.4,-100.00,West,265,9.0,21.0,80,0.00,,,0.00,meteohub,2013-12-05 05:01:00,
2013-12-04 23:02:00,29.8,24.4,-100.00,West,275,14.0,21.0,80,0.00,,,0.00,meteohub,2013-12-05 05:02:00,
2013-12-04 23:04:00,29.8,24.4,-100.00,NW,318,5.0,21.0,80,0.00,,,0.00,meteohub,2013-12-05 05:04:00,
2013-12-04 23:09:00,29.7,24.3,-100.00,West,262,10.0,21.0,80,0.00,,,0.00,meteohub,2013-12-05 05:09:00,
2013-12-04 23:14:00,29.5,24.1,-100.00,West,261,14.0,18.0,80,0.00,,,0.00,meteohub,2013-12-05 05:14:00,
2013-12-04 23:19:00,29.5,24.1,-100.00,WNW,290,15.0,18.0,80,0.00,,,0.00,meteohub,2013-12-05 05:19:00,
2013-12-04 23:24:00,29.5,24.1,-100.00,West,277,9.0,21.0,80,0.00,,,0.00,meteohub,2013-12-05 05:24:00,
2013-12-04 23:29:00,29.5,24.1,-100.00,WNW,290,15.0,21.0,80,0.00,,,0.00,meteohub,2013-12-05 05:29:00,
2013-12-04 23:34:00,29.3,23.5,-100.00,West,271,21.0,21.0,79,0.00,,,0.00,meteohub,2013-12-05 05:34:00,
2013-12-04 23:39:00,29.1,23.4,-100.00,South,184,9.0,21.0,79,0.00,,,0.00,meteohub,2013-12-05 05:39:00,
2013-12-04 23:44:00,29.1,23.4,-100.00,West,274,14.0,21.0,79,0.00,,,0.00,meteohub,2013-12-05 05:44:00,
2013-12-04 23:49:00,29.1,23.7,-100.00,West,269,13.0,21.0,80,0.00,,,0.00,meteohub,2013-12-05 05:49:00,
2013-12-04 23:54:00,29.1,23.7,-100.00,West,274,6.0,18.0,80,0.00,,,0.00,meteohub,2013-12-05 05:54:00,
2013-12-04 23:59:00,29.1,23.7,-100.00,WSW,257,5.0,18.0,80,0.00,,,0.00,meteohub,2013-12-05 05:59:00,